Time,TemperatureF,DewpointF,PressureIn,WindDirection,WindDirectionDegrees,WindSpeedMPH,WindSpeedGustMPH,Humidity,HourlyPrecipIn,Conditions,Clouds,dailyrainin,SolarRadiationWatts/m^2,SoftwareType,DateUTC
2013-02-20 00:21:00,35.0,35.0,-100.00,NNW,347,6.0,14.0,100,0.04,,,0.19,0.000000,,2013-02-20 09:21:00,
2013-02-20 00:31:00,35.0,35.0,-100.00,NNW,347,6.0,14.0,100,0.04,,,0.19,0.000000,,2013-02-20 09:31:00,
2013-02-20 00:41:00,35.0,35.0,-100.00,NNW,347,6.0,14.0,100,0.04,,,0.19,0.000000,,2013-02-20 09:41:00,
2013-02-20 00:51:00,35.0,35.0,-100.00,NNW,347,6.0,14.0,100,0.04,,,0.19,0.000000,,2013-02-20 09:51:00,
2013-02-20 01:21:00,35.0,35.0,-100.00,North,353,13.0,22.0,100,0.06,,,0.25,0.000000,,2013-02-20 10:21:00,
2013-02-20 01:31:00,35.0,35.0,-100.00,North,353,13.0,22.0,100,0.06,,,0.25,0.000000,,2013-02-20 10:31:00,
2013-02-20 01:41:00,35.0,35.0,-100.00,North,353,13.0,22.0,100,0.06,,,0.25,0.000000,,2013-02-20 10:41:00,
2013-02-20 01:51:00,35.0,35.0,-100.00,North,353,13.0,22.0,100,0.06,,,0.25,0.000000,,2013-02-20 10:51:00,
2013-02-20 02:21:00,33.0,33.0,-100.00,NNW,333,12.0,22.0,100,0.08,,,0.33,0.000000,,2013-02-20 11:21:00,
2013-02-20 02:32:00,33.0,33.0,-100.00,NNW,333,12.0,22.0,100,0.08,,,0.33,0.000000,,2013-02-20 11:32:00,
2013-02-20 02:41:00,33.0,33.0,-100.00,NNW,333,12.0,22.0,100,0.08,,,0.33,0.000000,,2013-02-20 11:41:00,
2013-02-20 02:52:00,33.0,33.0,-100.00,NNW,333,12.0,22.0,100,0.08,,,0.33,0.000000,,2013-02-20 11:52:00,
2013-02-20 03:21:00,33.0,33.0,-100.00,NNW,346,7.0,24.0,100,0.02,,,0.35,0.000000,,2013-02-20 12:21:00,
2013-02-20 03:31:00,33.0,33.0,-100.00,NNW,346,7.0,24.0,100,0.02,,,0.35,0.000000,,2013-02-20 12:31:00,
2013-02-20 03:42:00,33.0,33.0,-100.00,NNW,346,7.0,24.0,100,0.02,,,0.35,0.000000,,2013-02-20 12:42:00,
2013-02-20 03:52:00,33.0,33.0,-100.00,NNW,346,7.0,24.0,100,0.02,,,0.35,0.000000,,2013-02-20 12:52:00,
2013-02-20 04:22:00,33.0,33.0,-100.00,WNW,302,6.0,16.0,100,0.00,,,0.35,0.000000,,2013-02-20 13:22:00,
2013-02-20 04:31:00,33.0,33.0,-100.00,WNW,302,6.0,16.0,100,0.00,,,0.35,0.000000,,2013-02-20 13:31:00,
2013-02-20 04:42:00,33.0,33.0,-100.00,WNW,302,6.0,16.0,100,0.00,,,0.35,0.000000,,2013-02-20 13:42:00,
2013-02-20 04:51:00,33.0,33.0,-100.00,WNW,302,6.0,16.0,100,0.00,,,0.35,0.000000,,2013-02-20 13:51:00,
2013-02-20 05:21:00,34.0,34.0,-100.00,NNW,332,15.0,26.0,100,0.02,,,0.37,0.000000,,2013-02-20 14:21:00,
2013-02-20 05:32:00,34.0,34.0,-100.00,NNW,332,15.0,26.0,100,0.02,,,0.37,0.000000,,2013-02-20 14:32:00,
2013-02-20 05:42:00,34.0,34.0,-100.00,NNW,332,15.0,26.0,100,0.02,,,0.37,0.000000,,2013-02-20 14:42:00,
2013-02-20 05:52:00,34.0,34.0,-100.00,NNW,332,15.0,26.0,100,0.02,,,0.37,0.000000,,2013-02-20 14:52:00,
2013-02-20 06:22:00,34.0,34.0,-100.00,NNW,332,18.0,30.0,100,0.09,,,0.46,0.000000,,2013-02-20 15:22:00,
2013-02-20 06:32:00,34.0,34.0,-100.00,NNW,332,18.0,30.0,100,0.09,,,0.46,0.000000,,2013-02-20 15:32:00,
2013-02-20 06:41:00,34.0,34.0,-100.00,NNW,332,18.0,30.0,100,0.09,,,0.46,0.000000,,2013-02-20 15:41:00,
2013-02-20 06:51:00,34.0,34.0,-100.00,NNW,332,18.0,30.0,100,0.09,,,0.46,0.000000,,2013-02-20 15:51:00,
2013-02-20 07:21:00,34.0,34.0,-100.00,North,349,17.0,34.0,100,0.10,,,0.55,0.000000,,2013-02-20 16:21:00,
2013-02-20 07:32:00,34.0,34.0,-100.00,North,349,17.0,34.0,100,0.10,,,0.55,0.000000,,2013-02-20 16:32:00,
2013-02-20 07:41:00,34.0,34.0,-100.00,North,349,17.0,34.0,100,0.10,,,0.55,0.000000,,2013-02-20 16:41:00,
2013-02-20 07:51:00,34.0,34.0,-100.00,North,349,17.0,34.0,100,0.10,,,0.55,0.000000,,2013-02-20 16:51:00,
2013-02-20 08:21:00,34.0,34.0,-100.00,North,6,11.0,23.0,100,0.05,,,0.60,4.000000,,2013-02-20 17:21:00,
2013-02-20 08:32:00,34.0,34.0,-100.00,North,6,11.0,23.0,100,0.05,,,0.60,4.000000,,2013-02-20 17:32:00,
2013-02-20 08:41:00,34.0,34.0,-100.00,North,6,11.0,23.0,100,0.05,,,0.60,4.000000,,2013-02-20 17:41:00,
2013-02-20 08:52:00,34.0,34.0,-100.00,North,6,11.0,23.0,100,0.05,,,0.60,4.000000,,2013-02-20 17:52:00,
2013-02-20 09:21:00,33.0,33.0,-100.00,North,357,10.0,16.0,100,0.02,,,0.62,37.000000,,2013-02-20 18:21:00,
2013-02-20 09:31:00,33.0,33.0,-100.00,North,357,10.0,16.0,100,0.02,,,0.62,37.000000,,2013-02-20 18:31:00,
2013-02-20 09:42:00,33.0,33.0,-100.00,North,357,10.0,16.0,100,0.02,,,0.62,37.000000,,2013-02-20 18:42:00,
2013-02-20 09:51:00,33.0,33.0,-100.00,North,357,10.0,16.0,100,0.02,,,0.62,37.000000,,2013-02-20 18:51:00,
2013-02-20 10:21:00,34.0,34.0,-100.00,North,356,9.0,15.0,100,0.02,,,0.64,58.000000,,2013-02-20 19:21:00,
2013-02-20 10:31:00,34.0,34.0,-100.00,North,356,9.0,15.0,100,0.02,,,0.64,58.000000,,2013-02-20 19:31:00,
2013-02-20 10:41:00,34.0,34.0,-100.00,North,356,9.0,15.0,100,0.02,,,0.64,58.000000,,2013-02-20 19:41:00,
2013-02-20 10:51:00,34.0,34.0,-100.00,North,356,9.0,15.0,100,0.02,,,0.64,58.000000,,2013-02-20 19:51:00,
2013-02-20 11:21:00,35.0,35.0,-100.00,NNW,346,13.0,23.0,100,0.02,,,0.66,135.000000,,2013-02-20 20:21:00,
2013-02-20 11:31:00,35.0,35.0,-100.00,NNW,346,13.0,23.0,100,0.02,,,0.66,135.000000,,2013-02-20 20:31:00,
2013-02-20 11:41:00,35.0,35.0,-100.00,NNW,346,13.0,23.0,100,0.02,,,0.66,135.000000,,2013-02-20 20:41:00,
2013-02-20 11:51:00,35.0,35.0,-100.00,NNW,346,13.0,23.0,100,0.02,,,0.66,135.000000,,2013-02-20 20:51:00,
2013-02-20 12:21:00,33.0,33.0,-100.00,NNW,343,13.0,23.0,100,0.03,,,-99.99,75.000000,,2013-02-20 21:21:00,
2013-02-20 12:31:00,33.0,33.0,-100.00,NNW,343,13.0,23.0,100,0.03,,,-99.99,75.000000,,2013-02-20 21:31:00,
2013-02-20 12:41:00,33.0,33.0,-100.00,NNW,343,13.0,23.0,100,0.03,,,-99.99,75.000000,,2013-02-20 21:41:00,
2013-02-20 12:51:00,33.0,33.0,-100.00,NNW,343,13.0,23.0,100,0.03,,,-99.99,75.000000,,2013-02-20 21:51:00,
2013-02-20 13:21:00,34.0,34.0,-100.00,NNW,334,12.0,19.0,100,0.00,,,0.69,106.000000,,2013-02-20 22:21:00,
2013-02-20 13:31:00,34.0,34.0,-100.00,NNW,334,12.0,19.0,100,0.00,,,0.69,106.000000,,2013-02-20 22:31:00,
2013-02-20 13:42:00,34.0,34.0,-100.00,NNW,334,12.0,19.0,100,0.00,,,0.69,106.000000,,2013-02-20 22:42:00,
2013-02-20 13:51:00,34.0,34.0,-100.00,NNW,334,12.0,19.0,100,0.00,,,0.69,106.000000,,2013-02-20 22:51:00,
2013-02-20 14:22:00,32.0,32.0,-100.00,North,5,11.0,21.0,100,0.01,,,0.70,20.000000,,2013-02-20 23:22:00,
2013-02-20 14:31:00,32.0,32.0,-100.00,North,5,11.0,21.0,100,0.01,,,0.70,20.000000,,2013-02-20 23:31:00,
2013-02-20 14:42:00,32.0,32.0,-100.00,North,5,11.0,21.0,100,0.01,,,0.70,20.000000,,2013-02-20 23:42:00,
2013-02-20 14:52:00,32.0,32.0,-100.00,North,5,11.0,21.0,100,0.01,,,0.70,20.000000,,2013-02-20 23:52:00,
2013-02-20 15:21:00,33.0,33.0,-100.00,NNW,348,15.0,26.0,100,0.00,,,0.70,56.000000,,2013-02-21 00:21:00,
2013-02-20 15:32:00,33.0,33.0,-100.00,NNW,348,15.0,26.0,100,0.00,,,0.70,56.000000,,2013-02-21 00:32:00,
2013-02-20 15:42:00,33.0,33.0,-100.00,NNW,348,15.0,26.0,100,0.00,,,0.70,56.000000,,2013-02-21 00:42:00,
2013-02-20 15:52:00,33.0,33.0,-100.00,NNW,348,15.0,26.0,100,0.00,,,0.70,56.000000,,2013-02-21 00:52:00,
2013-02-20 16:21:00,33.0,33.0,-100.00,NNW,329,12.0,27.0,100,0.01,,,0.71,44.000000,,2013-02-21 01:21:00,
2013-02-20 16:32:00,33.0,33.0,-100.00,NNW,329,12.0,27.0,100,0.01,,,0.71,44.000000,,2013-02-21 01:32:00,
2013-02-20 16:41:00,33.0,33.0,-100.00,NNW,329,12.0,27.0,100,0.01,,,0.71,44.000000,,2013-02-21 01:41:00,
2013-02-20 16:51:00,33.0,33.0,-100.00,NNW,329,12.0,27.0,100,0.01,,,0.71,44.000000,,2013-02-21 01:51:00,
2013-02-20 17:21:00,33.0,33.0,-100.00,NNW,339,14.0,23.0,100,0.03,,,0.66,8.000000,,2013-02-21 02:21:00,
2013-02-20 17:32:00,33.0,33.0,-100.00,NNW,339,14.0,23.0,100,0.03,,,0.66,8.000000,,2013-02-21 02:32:00,
2013-02-20 17:42:00,33.0,33.0,-100.00,NNW,339,14.0,23.0,100,0.03,,,0.66,8.000000,,2013-02-21 02:42:00,
2013-02-20 17:51:00,33.0,33.0,-100.00,NNW,339,14.0,23.0,100,0.03,,,0.66,8.000000,,2013-02-21 02:51:00,
2013-02-20 18:21:00,33.0,33.0,-100.00,NNW,332,10.0,20.0,100,0.02,,,0.67,0.000000,,2013-02-21 03:21:00,
2013-02-20 18:31:00,33.0,33.0,-100.00,NNW,332,10.0,20.0,100,0.02,,,0.67,0.000000,,2013-02-21 03:31:00,
2013-02-20 18:41:00,33.0,33.0,-100.00,NNW,332,10.0,20.0,100,0.02,,,0.67,0.000000,,2013-02-21 03:41:00,
2013-02-20 18:51:00,33.0,33.0,-100.00,NNW,332,10.0,20.0,100,0.02,,,0.67,0.000000,,2013-02-21 03:51:00,
2013-02-20 19:21:00,33.0,33.0,-100.00,NNW,338,9.0,19.0,100,0.04,,,0.70,0.000000,,2013-02-21 04:21:00,
2013-02-20 19:31:00,33.0,33.0,-100.00,NNW,338,9.0,19.0,100,0.04,,,0.70,0.000000,,2013-02-21 04:31:00,
2013-02-20 19:41:00,33.0,33.0,-100.00,NNW,338,9.0,19.0,100,0.04,,,0.70,0.000000,,2013-02-21 04:41:00,
2013-02-20 19:51:00,33.0,33.0,-100.00,NNW,338,9.0,19.0,100,0.04,,,0.70,0.000000,,2013-02-21 04:51:00,
2013-02-20 20:22:00,33.0,33.0,-100.00,NW,325,6.0,19.0,100,0.01,,,0.71,0.000000,,2013-02-21 05:22:00,
2013-02-20 20:33:00,33.0,33.0,-100.00,NW,325,6.0,19.0,100,0.01,,,0.71,0.000000,,2013-02-21 05:33:00,
2013-02-20 20:43:00,33.0,33.0,-100.00,NW,325,6.0,19.0,100,0.01,,,0.71,0.000000,,2013-02-21 05:43:00,
2013-02-20 20:52:00,33.0,33.0,-100.00,NW,325,6.0,19.0,100,0.01,,,0.71,0.000000,,2013-02-21 05:52:00,
2013-02-20 21:11:00,33.0,33.0,-100.00,WNW,300,9.0,18.0,100,0.02,,,0.73,0.000000,,2013-02-21 06:11:00,
2013-02-20 21:21:00,33.0,33.0,-100.00,WNW,300,9.0,18.0,100,0.02,,,0.73,0.000000,,2013-02-21 06:21:00,
2013-02-20 21:31:00,33.0,33.0,-100.00,WNW,300,9.0,18.0,100,0.02,,,0.73,0.000000,,2013-02-21 06:31:00,
2013-02-20 21:41:00,33.0,33.0,-100.00,WNW,300,9.0,18.0,100,0.02,,,0.73,0.000000,,2013-02-21 06:41:00,
2013-02-20 21:51:00,33.0,33.0,-100.00,WNW,300,9.0,18.0,100,0.02,,,0.73,0.000000,,2013-02-21 06:51:00,
2013-02-20 22:21:00,34.0,34.0,-100.00,NW,311,8.0,21.0,100,0.01,,,0.74,0.000000,,2013-02-21 07:21:00,
2013-02-20 22:31:00,34.0,34.0,-100.00,NW,311,8.0,21.0,100,0.01,,,0.74,0.000000,,2013-02-21 07:31:00,
2013-02-20 22:41:00,34.0,34.0,-100.00,NW,311,8.0,21.0,100,0.01,,,0.74,0.000000,,2013-02-21 07:41:00,
2013-02-20 22:52:00,34.0,34.0,-100.00,NW,311,8.0,21.0,100,0.01,,,0.74,0.000000,,2013-02-21 07:52:00,
2013-02-20 23:21:00,34.0,34.0,-100.00,NW,318,5.0,26.0,100,0.02,,,0.72,0.000000,,2013-02-21 08:21:00,
2013-02-20 23:31:00,34.0,34.0,-100.00,NW,318,5.0,26.0,100,0.02,,,0.72,0.000000,,2013-02-21 08:31:00,
2013-02-20 23:41:00,34.0,34.0,-100.00,NW,318,5.0,26.0,100,0.02,,,0.72,0.000000,,2013-02-21 08:41:00,
2013-02-20 23:51:00,34.0,34.0,-100.00,NW,318,5.0,26.0,100,0.02,,,0.72,0.000000,,2013-02-21 08:51:00,